sensor_id;sensor_type;location;lat;lon;timestamp;temperature;humidity
12504;DHT22;6316;48.118;-1.690;2023-04-25T07:44:56;18.60;99.90
12504;DHT22;6316;48.118;-1.690;2023-04-25T07:47:22;18.40;99.90
12504;DHT22;6316;48.118;-1.690;2023-04-25T07:49:48;18.10;99.90
12504;DHT22;6316;48.118;-1.690;2023-04-25T07:52:14;17.90;99.90
12504;DHT22;6316;48.118;-1.690;2023-04-25T07:54:39;17.70;99.90
12504;DHT22;6316;48.118;-1.690;2023-04-25T07:57:05;17.60;99.90
12504;DHT22;6316;48.118;-1.690;2023-04-25T07:59:34;17.40;99.90
12504;DHT22;6316;48.118;-1.690;2023-04-25T08:02:00;17.20;99.90
12504;DHT22;6316;48.118;-1.690;2023-04-25T08:04:26;17.00;99.90
12504;DHT22;6316;48.118;-1.690;2023-04-25T08:06:52;16.90;99.90
12504;DHT22;6316;48.118;-1.690;2023-04-25T08:09:20;16.90;99.90
12504;DHT22;6316;48.118;-1.690;2023-04-25T08:11:46;16.80;99.90
12504;DHT22;6316;48.118;-1.690;2023-04-25T08:14:12;16.70;99.90
12504;DHT22;6316;48.118;-1.690;2023-04-25T08:16:38;16.40;99.90
12504;DHT22;6316;48.118;-1.690;2023-04-25T08:19:04;16.10;99.90
12504;DHT22;6316;48.118;-1.690;2023-04-25T08:21:30;15.90;99.90
12504;DHT22;6316;48.118;-1.690;2023-04-25T08:23:57;15.70;99.90
12504;DHT22;6316;48.118;-1.690;2023-04-25T08:26:24;15.50;99.90
12504;DHT22;6316;48.118;-1.690;2023-04-25T08:28:50;15.30;99.90
12504;DHT22;6316;48.118;-1.690;2023-04-25T08:31:16;15.10;99.90
12504;DHT22;6316;48.118;-1.690;2023-04-25T08:33:42;15.00;99.90
12504;DHT22;6316;48.118;-1.690;2023-04-25T08:36:08;14.90;99.90
12504;DHT22;6316;48.118;-1.690;2023-04-25T08:38:33;14.90;99.90
12504;DHT22;6316;48.118;-1.690;2023-04-25T08:41:00;14.90;99.90
12504;DHT22;6316;48.118;-1.690;2023-04-25T08:43:29;15.00;99.90
12504;DHT22;6316;48.118;-1.690;2023-04-25T08:45:59;15.10;99.90
12504;DHT22;6316;48.118;-1.690;2023-04-25T08:48:31;15.10;99.90
12504;DHT22;6316;48.118;-1.690;2023-04-25T08:50:57;15.00;99.90
12504;DHT22;6316;48.118;-1.690;2023-04-25T08:53:28;15.00;99.90
12504;DHT22;6316;48.118;-1.690;2023-04-25T08:55:55;14.90;99.90
12504;DHT22;6316;48.118;-1.690;2023-04-25T08:58:21;14.80;99.90
12504;DHT22;6316;48.118;-1.690;2023-04-25T09:00:48;14.80;99.90
12504;DHT22;6316;48.118;-1.690;2023-04-25T09:03:14;14.80;99.90
12504;DHT22;6316;48.118;-1.690;2023-04-25T09:05:41;14.70;99.90
12504;DHT22;6316;48.118;-1.690;2023-04-25T09:08:07;14.80;99.90
12504;DHT22;6316;48.118;-1.690;2023-04-25T09:10:33;14.80;99.90
12504;DHT22;6316;48.118;-1.690;2023-04-25T09:13:07;14.70;99.90
12504;DHT22;6316;48.118;-1.690;2023-04-25T09:15:51;14.70;99.90
12504;DHT22;6316;48.118;-1.690;2023-04-25T09:20:48;14.80;99.90
12504;DHT22;6316;48.118;-1.690;2023-04-25T09:23:14;14.80;99.90
12504;DHT22;6316;48.118;-1.690;2023-04-25T09:25:40;14.80;99.90
12504;DHT22;6316;48.118;-1.690;2023-04-25T09:28:08;14.70;99.90
12504;DHT22;6316;48.118;-1.690;2023-04-25T09:30:35;14.60;99.90
12504;DHT22;6316;48.118;-1.690;2023-04-25T09:33:10;14.50;99.90
12504;DHT22;6316;48.118;-1.690;2023-04-25T09:35:43;14.40;99.90
12504;DHT22;6316;48.118;-1.690;2023-04-25T09:38:11;14.40;99.90
12504;DHT22;6316;48.118;-1.690;2023-04-25T09:40:45;14.30;99.90
12504;DHT22;6316;48.118;-1.690;2023-04-25T09:43:22;14.30;99.90
12504;DHT22;6316;48.118;-1.690;2023-04-25T09:45:48;14.40;99.90
12504;DHT22;6316;48.118;-1.690;2023-04-25T09:48:25;14.50;99.90
12504;DHT22;6316;48.118;-1.690;2023-04-25T09:51:13;14.70;99.90
12504;DHT22;6316;48.118;-1.690;2023-04-25T09:53:43;14.80;99.90
12504;DHT22;6316;48.118;-1.690;2023-04-25T09:56:11;14.90;99.90
12504;DHT22;6316;48.118;-1.690;2023-04-25T09:58:39;14.90;99.90
12504;DHT22;6316;48.118;-1.690;2023-04-25T10:01:06;15.00;99.90
12504;DHT22;6316;48.118;-1.690;2023-04-25T10:03:35;15.00;99.90
12504;DHT22;6316;48.118;-1.690;2023-04-25T10:06:07;15.00;99.90
12504;DHT22;6316;48.118;-1.690;2023-04-25T10:08:35;14.90;99.90
12504;DHT22;6316;48.118;-1.690;2023-04-25T10:11:07;14.90;99.90
12504;DHT22;6316;48.118;-1.690;2023-04-25T10:13:34;14.90;99.90
12504;DHT22;6316;48.118;-1.690;2023-04-25T10:16:03;14.90;99.90
12504;DHT22;6316;48.118;-1.690;2023-04-25T10:18:30;14.90;99.90
12504;DHT22;6316;48.118;-1.690;2023-04-25T10:20:59;14.90;99.90
12504;DHT22;6316;48.118;-1.690;2023-04-25T10:23:25;15.10;99.90
12504;DHT22;6316;48.118;-1.690;2023-04-25T10:25:51;15.30;99.90
12504;DHT22;6316;48.118;-1.690;2023-04-25T10:28:18;15.60;99.90
12504;DHT22;6316;48.118;-1.690;2023-04-25T10:31:10;15.60;99.90
12504;DHT22;6316;48.118;-1.690;2023-04-25T10:33:38;15.70;99.90
12504;DHT22;6316;48.118;-1.690;2023-04-25T10:36:14;15.60;99.90
12504;DHT22;6316;48.118;-1.690;2023-04-25T10:38:43;15.50;99.90
12504;DHT22;6316;48.118;-1.690;2023-04-25T10:41:12;15.50;99.90
12504;DHT22;6316;48.118;-1.690;2023-04-25T10:43:45;15.50;99.90
12504;DHT22;6316;48.118;-1.690;2023-04-25T10:46:21;15.40;99.90
12504;DHT22;6316;48.118;-1.690;2023-04-25T10:51:25;15.40;99.90
12504;DHT22;6316;48.118;-1.690;2023-04-25T10:54:00;15.30;99.90
12504;DHT22;6316;48.118;-1.690;2023-04-25T10:56:44;15.30;99.90
12504;DHT22;6316;48.118;-1.690;2023-04-25T10:59:15;15.40;99.90
12504;DHT22;6316;48.118;-1.690;2023-04-25T11:01:43;15.50;99.90
12504;DHT22;6316;48.118;-1.690;2023-04-25T11:04:29;15.60;99.90
12504;DHT22;6316;48.118;-1.690;2023-04-25T11:09:45;15.90;99.90
12504;DHT22;6316;48.118;-1.690;2023-04-25T11:12:11;15.90;99.90
12504;DHT22;6316;48.118;-1.690;2023-04-25T11:14:38;16.00;99.90
12504;DHT22;6316;48.118;-1.690;2023-04-25T11:17:03;16.00;99.90
12504;DHT22;6316;48.118;-1.690;2023-04-25T11:19:29;16.00;99.90
12504;DHT22;6316;48.118;-1.690;2023-04-25T11:21:59;16.00;99.90
12504;DHT22;6316;48.118;-1.690;2023-04-25T11:24:27;16.10;99.90
12504;DHT22;6316;48.118;-1.690;2023-04-25T11:26:53;16.20;99.90
12504;DHT22;6316;48.118;-1.690;2023-04-25T11:29:22;16.40;99.90
12504;DHT22;6316;48.118;-1.690;2023-04-25T11:31:48;16.60;99.90
12504;DHT22;6316;48.118;-1.690;2023-04-25T11:34:18;16.70;99.90
12504;DHT22;6316;48.118;-1.690;2023-04-25T11:36:45;16.70;99.90
12504;DHT22;6316;48.118;-1.690;2023-04-25T11:39:11;16.70;99.90
12504;DHT22;6316;48.118;-1.690;2023-04-25T11:41:41;16.60;99.90
12504;DHT22;6316;48.118;-1.690;2023-04-25T11:44:07;16.60;99.90
12504;DHT22;6316;48.118;-1.690;2023-04-25T11:46:36;16.50;99.90
12504;DHT22;6316;48.118;-1.690;2023-04-25T11:49:02;16.40;99.90
12504;DHT22;6316;48.118;-1.690;2023-04-25T11:51:29;16.30;99.90
12504;DHT22;6316;48.118;-1.690;2023-04-25T11:53:55;16.20;99.90
12504;DHT22;6316;48.118;-1.690;2023-04-25T11:56:21;16.10;99.90
12504;DHT22;6316;48.118;-1.690;2023-04-25T12:01:33;15.90;99.90
12504;DHT22;6316;48.118;-1.690;2023-04-25T12:04:13;15.80;99.90
12504;DHT22;6316;48.118;-1.690;2023-04-25T12:06:40;15.70;99.90
12504;DHT22;6316;48.118;-1.690;2023-04-25T12:09:11;15.70;99.90
12504;DHT22;6316;48.118;-1.690;2023-04-25T12:14:09;15.80;99.90
12504;DHT22;6316;48.118;-1.690;2023-04-25T12:16:45;15.90;99.90
12504;DHT22;6316;48.118;-1.690;2023-04-25T12:19:14;16.00;99.90
12504;DHT22;6316;48.118;-1.690;2023-04-25T12:21:40;16.10;99.90
12504;DHT22;6316;48.118;-1.690;2023-04-25T12:24:16;16.10;99.90
12504;DHT22;6316;48.118;-1.690;2023-04-25T12:27:02;16.10;99.90
12504;DHT22;6316;48.118;-1.690;2023-04-25T12:29:30;16.10;99.90
12504;DHT22;6316;48.118;-1.690;2023-04-25T12:31:56;16.20;99.90
12504;DHT22;6316;48.118;-1.690;2023-04-25T12:34:22;16.20;99.90
12504;DHT22;6316;48.118;-1.690;2023-04-25T12:36:49;16.20;99.90
12504;DHT22;6316;48.118;-1.690;2023-04-25T12:39:16;16.30;99.90
12504;DHT22;6316;48.118;-1.690;2023-04-25T12:41:42;16.30;99.90
12504;DHT22;6316;48.118;-1.690;2023-04-25T12:44:08;16.40;99.90
12504;DHT22;6316;48.118;-1.690;2023-04-25T12:46:33;16.60;99.90
12504;DHT22;6316;48.118;-1.690;2023-04-25T12:48:59;16.80;99.90
12504;DHT22;6316;48.118;-1.690;2023-04-25T12:51:25;17.00;99.90
12504;DHT22;6316;48.118;-1.690;2023-04-25T12:53:53;17.10;99.90
12504;DHT22;6316;48.118;-1.690;2023-04-25T12:56:19;17.10;99.90
12504;DHT22;6316;48.118;-1.690;2023-04-25T12:58:45;17.10;99.90
12504;DHT22;6316;48.118;-1.690;2023-04-25T13:01:10;17.10;99.90
12504;DHT22;6316;48.118;-1.690;2023-04-25T13:03:37;17.10;99.90
12504;DHT22;6316;48.118;-1.690;2023-04-25T13:06:03;17.20;99.90
12504;DHT22;6316;48.118;-1.690;2023-04-25T13:08:30;17.20;99.90
12504;DHT22;6316;48.118;-1.690;2023-04-25T13:10:55;17.30;99.90
12504;DHT22;6316;48.118;-1.690;2023-04-25T13:13:21;17.40;99.90
12504;DHT22;6316;48.118;-1.690;2023-04-25T13:15:46;17.50;99.90
12504;DHT22;6316;48.118;-1.690;2023-04-25T13:18:12;17.50;99.90
12504;DHT22;6316;48.118;-1.690;2023-04-25T13:20:38;17.50;99.90
12504;DHT22;6316;48.118;-1.690;2023-04-25T13:23:04;17.50;99.90
12504;DHT22;6316;48.118;-1.690;2023-04-25T13:25:29;17.40;99.90
12504;DHT22;6316;48.118;-1.690;2023-04-25T13:27:55;17.30;99.90
12504;DHT22;6316;48.118;-1.690;2023-04-25T13:30:21;17.20;99.90
12504;DHT22;6316;48.118;-1.690;2023-04-25T13:32:46;17.10;99.90
12504;DHT22;6316;48.118;-1.690;2023-04-25T13:35:13;17.10;99.90
12504;DHT22;6316;48.118;-1.690;2023-04-25T13:37:39;17.10;99.90
12504;DHT22;6316;48.118;-1.690;2023-04-25T13:40:10;17.10;99.90
12504;DHT22;6316;48.118;-1.690;2023-04-25T13:42:37;17.00;99.90
12504;DHT22;6316;48.118;-1.690;2023-04-25T13:45:03;17.00;99.90
12504;DHT22;6316;48.118;-1.690;2023-04-25T13:47:29;17.00;99.90
12504;DHT22;6316;48.118;-1.690;2023-04-25T13:49:56;16.90;99.90
12504;DHT22;6316;48.118;-1.690;2023-04-25T13:52:22;16.90;99.90
12504;DHT22;6316;48.118;-1.690;2023-04-25T13:54:49;16.80;99.90
12504;DHT22;6316;48.118;-1.690;2023-04-25T13:57:16;16.80;99.90
12504;DHT22;6316;48.118;-1.690;2023-04-25T13:59:41;16.80;99.90
12504;DHT22;6316;48.118;-1.690;2023-04-25T14:02:07;16.70;99.90
12504;DHT22;6316;48.118;-1.690;2023-04-25T14:04:33;16.80;99.90
12504;DHT22;6316;48.118;-1.690;2023-04-25T14:06:59;16.70;99.90
12504;DHT22;6316;48.118;-1.690;2023-04-25T14:09:25;16.70;99.90
12504;DHT22;6316;48.118;-1.690;2023-04-25T14:11:52;16.70;99.90
12504;DHT22;6316;48.118;-1.690;2023-04-25T14:14:18;16.70;99.90
12504;DHT22;6316;48.118;-1.690;2023-04-25T14:16:44;16.70;99.90
12504;DHT22;6316;48.118;-1.690;2023-04-25T14:19:10;16.70;99.90
12504;DHT22;6316;48.118;-1.690;2023-04-25T14:21:36;16.80;99.90
12504;DHT22;6316;48.118;-1.690;2023-04-25T14:24:01;16.90;99.90
12504;DHT22;6316;48.118;-1.690;2023-04-25T14:26:27;16.90;99.90
12504;DHT22;6316;48.118;-1.690;2023-04-25T14:28:53;16.90;99.90
12504;DHT22;6316;48.118;-1.690;2023-04-25T14:31:18;17.00;99.90
12504;DHT22;6316;48.118;-1.690;2023-04-25T14:33:44;17.00;99.90
12504;DHT22;6316;48.118;-1.690;2023-04-25T14:36:10;17.10;99.90
12504;DHT22;6316;48.118;-1.690;2023-04-25T14:38:36;17.20;99.90
12504;DHT22;6316;48.118;-1.690;2023-04-25T14:41:02;17.20;99.90
12504;DHT22;6316;48.118;-1.690;2023-04-25T14:43:28;17.30;99.90
12504;DHT22;6316;48.118;-1.690;2023-04-25T14:45:53;17.30;99.90
12504;DHT22;6316;48.118;-1.690;2023-04-25T14:48:19;17.40;99.90
12504;DHT22;6316;48.118;-1.690;2023-04-25T14:50:45;17.40;99.90
12504;DHT22;6316;48.118;-1.690;2023-04-25T14:53:12;17.30;99.90
12504;DHT22;6316;48.118;-1.690;2023-04-25T14:55:38;17.30;99.90
12504;DHT22;6316;48.118;-1.690;2023-04-25T14:58:03;17.30;99.90
12504;DHT22;6316;48.118;-1.690;2023-04-25T15:00:29;17.30;99.90
12504;DHT22;6316;48.118;-1.690;2023-04-25T15:02:57;17.40;99.90
12504;DHT22;6316;48.118;-1.690;2023-04-25T15:05:23;17.40;99.90
12504;DHT22;6316;48.118;-1.690;2023-04-25T15:07:49;17.40;99.90
12504;DHT22;6316;48.118;-1.690;2023-04-25T15:10:16;17.40;99.90
12504;DHT22;6316;48.118;-1.690;2023-04-25T15:12:45;17.50;99.90
12504;DHT22;6316;48.118;-1.690;2023-04-25T15:15:11;17.50;99.90
12504;DHT22;6316;48.118;-1.690;2023-04-25T15:17:43;17.60;99.90
12504;DHT22;6316;48.118;-1.690;2023-04-25T15:20:11;17.60;99.90
12504;DHT22;6316;48.118;-1.690;2023-04-25T15:22:41;17.60;99.90
12504;DHT22;6316;48.118;-1.690;2023-04-25T15:25:08;17.50;99.90
12504;DHT22;6316;48.118;-1.690;2023-04-25T15:27:35;17.40;99.90
12504;DHT22;6316;48.118;-1.690;2023-04-25T15:30:06;17.30;99.90
12504;DHT22;6316;48.118;-1.690;2023-04-25T15:32:33;17.20;99.90
12504;DHT22;6316;48.118;-1.690;2023-04-25T15:35:02;17.10;99.90
12504;DHT22;6316;48.118;-1.690;2023-04-25T15:37:28;17.10;99.90
12504;DHT22;6316;48.118;-1.690;2023-04-25T15:40:20;17.10;99.90
12504;DHT22;6316;48.118;-1.690;2023-04-25T15:42:48;17.10;99.90
12504;DHT22;6316;48.118;-1.690;2023-04-25T15:45:18;17.10;99.90
12504;DHT22;6316;48.118;-1.690;2023-04-25T15:47:45;17.00;99.90
12504;DHT22;6316;48.118;-1.690;2023-04-25T15:50:11;17.00;99.90
12504;DHT22;6316;48.118;-1.690;2023-04-25T15:52:38;16.90;99.90
12504;DHT22;6316;48.118;-1.690;2023-04-25T15:55:04;16.90;99.90
12504;DHT22;6316;48.118;-1.690;2023-04-25T15:57:32;16.80;99.90
12504;DHT22;6316;48.118;-1.690;2023-04-25T15:59:58;16.80;99.90
12504;DHT22;6316;48.118;-1.690;2023-04-25T16:02:24;16.80;99.90
12504;DHT22;6316;48.118;-1.690;2023-04-25T16:04:50;16.70;99.90
12504;DHT22;6316;48.118;-1.690;2023-04-25T16:07:16;16.60;99.90
12504;DHT22;6316;48.118;-1.690;2023-04-25T16:09:42;16.50;99.90
12504;DHT22;6316;48.118;-1.690;2023-04-25T16:12:10;16.50;99.90
12504;DHT22;6316;48.118;-1.690;2023-04-25T16:14:36;16.40;99.90
12504;DHT22;6316;48.118;-1.690;2023-04-25T16:17:01;16.40;99.90
12504;DHT22;6316;48.118;-1.690;2023-04-25T16:19:27;16.30;99.90
12504;DHT22;6316;48.118;-1.690;2023-04-25T16:21:53;16.30;99.90
12504;DHT22;6316;48.118;-1.690;2023-04-25T16:24:19;16.30;99.90
12504;DHT22;6316;48.118;-1.690;2023-04-25T16:26:45;16.30;99.90
12504;DHT22;6316;48.118;-1.690;2023-04-25T16:29:11;16.30;99.90
12504;DHT22;6316;48.118;-1.690;2023-04-25T16:31:38;16.20;99.90
12504;DHT22;6316;48.118;-1.690;2023-04-25T16:34:04;16.20;99.90
12504;DHT22;6316;48.118;-1.690;2023-04-25T16:36:30;16.10;99.90
12504;DHT22;6316;48.118;-1.690;2023-04-25T16:38:57;16.10;99.90
12504;DHT22;6316;48.118;-1.690;2023-04-25T16:41:23;16.10;99.90
12504;DHT22;6316;48.118;-1.690;2023-04-25T16:43:49;16.00;99.90
12504;DHT22;6316;48.118;-1.690;2023-04-25T16:46:15;16.00;99.90
12504;DHT22;6316;48.118;-1.690;2023-04-25T16:48:46;16.00;99.90
12504;DHT22;6316;48.118;-1.690;2023-04-25T16:51:13;16.00;99.90
12504;DHT22;6316;48.118;-1.690;2023-04-25T16:53:39;16.00;99.90
12504;DHT22;6316;48.118;-1.690;2023-04-25T16:56:06;16.00;99.90
12504;DHT22;6316;48.118;-1.690;2023-04-25T16:58:32;16.00;99.90
12504;DHT22;6316;48.118;-1.690;2023-04-25T17:00:58;16.00;99.90
12504;DHT22;6316;48.118;-1.690;2023-04-25T17:03:23;16.00;99.90
12504;DHT22;6316;48.118;-1.690;2023-04-25T17:05:50;16.00;99.90
12504;DHT22;6316;48.118;-1.690;2023-04-25T17:08:16;16.00;99.90
12504;DHT22;6316;48.118;-1.690;2023-04-25T17:10:41;16.00;99.90
12504;DHT22;6316;48.118;-1.690;2023-04-25T17:13:07;15.90;99.90
12504;DHT22;6316;48.118;-1.690;2023-04-25T17:15:33;15.90;99.90
12504;DHT22;6316;48.118;-1.690;2023-04-25T17:17:59;15.90;99.90
12504;DHT22;6316;48.118;-1.690;2023-04-25T17:20:25;15.90;99.90
12504;DHT22;6316;48.118;-1.690;2023-04-25T17:22:53;15.90;99.90
12504;DHT22;6316;48.118;-1.690;2023-04-25T17:25:19;15.90;99.90
12504;DHT22;6316;48.118;-1.690;2023-04-25T17:27:44;15.90;99.90
12504;DHT22;6316;48.118;-1.690;2023-04-25T17:30:10;15.90;99.90
12504;DHT22;6316;48.118;-1.690;2023-04-25T17:32:37;15.80;99.90
12504;DHT22;6316;48.118;-1.690;2023-04-25T17:35:03;15.80;99.90
12504;DHT22;6316;48.118;-1.690;2023-04-25T17:37:29;15.80;99.90
12504;DHT22;6316;48.118;-1.690;2023-04-25T17:39:55;15.80;99.90
12504;DHT22;6316;48.118;-1.690;2023-04-25T17:42:20;15.70;99.90
12504;DHT22;6316;48.118;-1.690;2023-04-25T17:44:46;15.70;99.90
12504;DHT22;6316;48.118;-1.690;2023-04-25T17:47:12;15.70;99.90
12504;DHT22;6316;48.118;-1.690;2023-04-25T17:49:38;15.70;99.90
12504;DHT22;6316;48.118;-1.690;2023-04-25T17:52:04;15.70;99.90
12504;DHT22;6316;48.118;-1.690;2023-04-25T17:54:30;15.70;99.90
12504;DHT22;6316;48.118;-1.690;2023-04-25T17:56:56;15.70;99.90
12504;DHT22;6316;48.118;-1.690;2023-04-25T17:59:22;15.70;99.90
12504;DHT22;6316;48.118;-1.690;2023-04-25T18:01:47;15.70;99.90
12504;DHT22;6316;48.118;-1.690;2023-04-25T18:04:13;15.60;99.90
12504;DHT22;6316;48.118;-1.690;2023-04-25T18:06:39;15.60;99.90
12504;DHT22;6316;48.118;-1.690;2023-04-25T18:09:05;15.60;99.90
12504;DHT22;6316;48.118;-1.690;2023-04-25T18:11:45;15.60;99.90
12504;DHT22;6316;48.118;-1.690;2023-04-25T18:14:12;15.50;99.90
12504;DHT22;6316;48.118;-1.690;2023-04-25T18:16:43;15.50;99.90
12504;DHT22;6316;48.118;-1.690;2023-04-25T18:19:09;15.50;99.90
12504;DHT22;6316;48.118;-1.690;2023-04-25T18:21:43;15.40;99.90
12504;DHT22;6316;48.118;-1.690;2023-04-25T18:24:10;15.40;99.90
12504;DHT22;6316;48.118;-1.690;2023-04-25T18:26:38;15.30;99.90
12504;DHT22;6316;48.118;-1.690;2023-04-25T18:29:04;15.30;99.90
12504;DHT22;6316;48.118;-1.690;2023-04-25T18:31:32;15.30;99.90
12504;DHT22;6316;48.118;-1.690;2023-04-25T18:33:58;15.30;99.90
12504;DHT22;6316;48.118;-1.690;2023-04-25T18:36:23;15.20;99.90
12504;DHT22;6316;48.118;-1.690;2023-04-25T18:38:49;15.20;99.90
12504;DHT22;6316;48.118;-1.690;2023-04-25T18:41:23;15.10;99.90
12504;DHT22;6316;48.118;-1.690;2023-04-25T18:43:55;15.10;99.90
12504;DHT22;6316;48.118;-1.690;2023-04-25T18:46:23;15.00;99.90
12504;DHT22;6316;48.118;-1.690;2023-04-25T18:48:50;15.00;99.90
12504;DHT22;6316;48.118;-1.690;2023-04-25T18:51:16;15.00;99.90
12504;DHT22;6316;48.118;-1.690;2023-04-25T18:53:42;14.90;99.90
12504;DHT22;6316;48.118;-1.690;2023-04-25T18:56:08;14.90;99.90
12504;DHT22;6316;48.118;-1.690;2023-04-25T18:58:34;14.90;99.90
12504;DHT22;6316;48.118;-1.690;2023-04-25T19:01:00;14.80;99.90
12504;DHT22;6316;48.118;-1.690;2023-04-25T19:03:26;14.80;99.90
12504;DHT22;6316;48.118;-1.690;2023-04-25T19:05:52;14.80;99.90
12504;DHT22;6316;48.118;-1.690;2023-04-25T19:08:18;14.70;99.90
12504;DHT22;6316;48.118;-1.690;2023-04-25T19:10:43;14.70;99.90
12504;DHT22;6316;48.118;-1.690;2023-04-25T19:13:09;14.70;99.90
12504;DHT22;6316;48.118;-1.690;2023-04-25T19:15:35;14.70;99.90
12504;DHT22;6316;48.118;-1.690;2023-04-25T19:18:01;14.70;99.90
12504;DHT22;6316;48.118;-1.690;2023-04-25T19:20:27;14.60;99.90
12504;DHT22;6316;48.118;-1.690;2023-04-25T19:22:53;14.60;99.90
12504;DHT22;6316;48.118;-1.690;2023-04-25T19:25:19;14.60;99.90
12504;DHT22;6316;48.118;-1.690;2023-04-25T19:27:45;14.60;99.90
12504;DHT22;6316;48.118;-1.690;2023-04-25T19:30:11;14.60;99.90
12504;DHT22;6316;48.118;-1.690;2023-04-25T19:32:37;14.60;99.90
12504;DHT22;6316;48.118;-1.690;2023-04-25T19:35:03;14.60;99.90
12504;DHT22;6316;48.118;-1.690;2023-04-25T19:37:29;14.60;99.90
12504;DHT22;6316;48.118;-1.690;2023-04-25T19:39:55;14.50;99.90
12504;DHT22;6316;48.118;-1.690;2023-04-25T19:42:21;14.50;99.90
12504;DHT22;6316;48.118;-1.690;2023-04-25T19:44:49;14.50;99.90
12504;DHT22;6316;48.118;-1.690;2023-04-25T19:47:15;14.50;99.90
12504;DHT22;6316;48.118;-1.690;2023-04-25T19:49:41;14.50;99.90
12504;DHT22;6316;48.118;-1.690;2023-04-25T19:52:07;14.50;99.90
12504;DHT22;6316;48.118;-1.690;2023-04-25T19:54:38;14.50;99.90
12504;DHT22;6316;48.118;-1.690;2023-04-25T19:57:04;14.50;99.90
12504;DHT22;6316;48.118;-1.690;2023-04-25T19:59:30;14.40;99.90
12504;DHT22;6316;48.118;-1.690;2023-04-25T20:01:55;14.40;99.90
12504;DHT22;6316;48.118;-1.690;2023-04-25T20:04:21;14.40;99.90
12504;DHT22;6316;48.118;-1.690;2023-04-25T20:06:47;14.40;99.90
12504;DHT22;6316;48.118;-1.690;2023-04-25T20:09:13;14.40;99.90
12504;DHT22;6316;48.118;-1.690;2023-04-25T20:11:38;14.30;99.90
12504;DHT22;6316;48.118;-1.690;2023-04-25T20:14:04;14.30;99.90
12504;DHT22;6316;48.118;-1.690;2023-04-25T20:16:30;14.30;99.90
12504;DHT22;6316;48.118;-1.690;2023-04-25T20:18:56;14.30;99.90
12504;DHT22;6316;48.118;-1.690;2023-04-25T20:21:22;14.30;99.90
12504;DHT22;6316;48.118;-1.690;2023-04-25T20:23:48;14.20;99.90
12504;DHT22;6316;48.118;-1.690;2023-04-25T20:26:13;14.20;99.90
12504;DHT22;6316;48.118;-1.690;2023-04-25T20:28:39;14.20;99.90
12504;DHT22;6316;48.118;-1.690;2023-04-25T20:31:06;14.20;99.90
12504;DHT22;6316;48.118;-1.690;2023-04-25T20:33:33;14.20;99.90
12504;DHT22;6316;48.118;-1.690;2023-04-25T20:35:59;14.10;99.90
12504;DHT22;6316;48.118;-1.690;2023-04-25T20:38:24;14.10;99.90
12504;DHT22;6316;48.118;-1.690;2023-04-25T20:40:51;14.10;99.90
12504;DHT22;6316;48.118;-1.690;2023-04-25T20:43:18;14.10;99.90
12504;DHT22;6316;48.118;-1.690;2023-04-25T20:45:44;14.10;99.90
12504;DHT22;6316;48.118;-1.690;2023-04-25T20:48:10;14.00;99.90
12504;DHT22;6316;48.118;-1.690;2023-04-25T20:50:35;14.00;99.90
12504;DHT22;6316;48.118;-1.690;2023-04-25T20:53:01;14.00;99.90
12504;DHT22;6316;48.118;-1.690;2023-04-25T20:55:27;13.90;99.90
12504;DHT22;6316;48.118;-1.690;2023-04-25T20:57:53;13.90;99.90
12504;DHT22;6316;48.118;-1.690;2023-04-25T21:00:19;13.90;99.90
12504;DHT22;6316;48.118;-1.690;2023-04-25T21:02:52;13.80;99.90
12504;DHT22;6316;48.118;-1.690;2023-04-25T21:05:18;13.80;99.90
12504;DHT22;6316;48.118;-1.690;2023-04-25T21:07:47;13.80;99.90
12504;DHT22;6316;48.118;-1.690;2023-04-25T21:10:13;13.70;99.90
12504;DHT22;6316;48.118;-1.690;2023-04-25T21:12:40;13.70;99.90
12504;DHT22;6316;48.118;-1.690;2023-04-25T21:15:06;13.60;99.90
12504;DHT22;6316;48.118;-1.690;2023-04-25T21:17:32;13.60;99.90
12504;DHT22;6316;48.118;-1.690;2023-04-25T21:19:58;13.50;99.90
12504;DHT22;6316;48.118;-1.690;2023-04-25T21:22:23;13.50;99.90
12504;DHT22;6316;48.118;-1.690;2023-04-25T21:24:49;13.50;99.90
12504;DHT22;6316;48.118;-1.690;2023-04-25T21:27:18;13.50;99.90
12504;DHT22;6316;48.118;-1.690;2023-04-25T21:29:44;13.50;99.90
12504;DHT22;6316;48.118;-1.690;2023-04-25T21:32:10;13.50;99.90
12504;DHT22;6316;48.118;-1.690;2023-04-25T21:34:36;13.50;99.90
12504;DHT22;6316;48.118;-1.690;2023-04-25T21:37:01;13.40;99.90
12504;DHT22;6316;48.118;-1.690;2023-04-25T21:39:29;13.40;99.90
12504;DHT22;6316;48.118;-1.690;2023-04-25T21:41:54;13.40;99.90
12504;DHT22;6316;48.118;-1.690;2023-04-25T21:44:20;13.40;99.90
12504;DHT22;6316;48.118;-1.690;2023-04-25T21:46:46;13.40;99.90
12504;DHT22;6316;48.118;-1.690;2023-04-25T21:49:12;13.40;99.90
12504;DHT22;6316;48.118;-1.690;2023-04-25T21:51:38;13.40;99.90
12504;DHT22;6316;48.118;-1.690;2023-04-25T21:54:03;13.40;99.90
12504;DHT22;6316;48.118;-1.690;2023-04-25T21:56:31;13.40;99.90
12504;DHT22;6316;48.118;-1.690;2023-04-25T21:58:56;13.40;99.90
12504;DHT22;6316;48.118;-1.690;2023-04-25T22:01:24;13.30;99.90
12504;DHT22;6316;48.118;-1.690;2023-04-25T22:03:52;13.30;99.90
12504;DHT22;6316;48.118;-1.690;2023-04-25T22:06:17;13.30;99.90
12504;DHT22;6316;48.118;-1.690;2023-04-25T22:08:43;13.30;99.90
12504;DHT22;6316;48.118;-1.690;2023-04-25T22:11:09;13.30;99.90
12504;DHT22;6316;48.118;-1.690;2023-04-25T22:13:34;13.30;99.90
12504;DHT22;6316;48.118;-1.690;2023-04-25T22:16:00;13.30;99.90
12504;DHT22;6316;48.118;-1.690;2023-04-25T22:18:26;13.30;99.90
12504;DHT22;6316;48.118;-1.690;2023-04-25T22:20:51;13.30;99.90
12504;DHT22;6316;48.118;-1.690;2023-04-25T22:23:17;13.30;99.90
12504;DHT22;6316;48.118;-1.690;2023-04-25T22:25:43;13.30;99.90
12504;DHT22;6316;48.118;-1.690;2023-04-25T22:28:09;13.30;99.90
12504;DHT22;6316;48.118;-1.690;2023-04-25T22:30:36;13.30;99.90
12504;DHT22;6316;48.118;-1.690;2023-04-25T22:33:02;13.20;99.90
12504;DHT22;6316;48.118;-1.690;2023-04-25T22:35:28;13.20;99.90
12504;DHT22;6316;48.118;-1.690;2023-04-25T22:37:53;13.20;99.90
12504;DHT22;6316;48.118;-1.690;2023-04-25T22:40:19;13.20;99.90
12504;DHT22;6316;48.118;-1.690;2023-04-25T22:42:45;13.20;99.90
12504;DHT22;6316;48.118;-1.690;2023-04-25T22:45:11;13.20;99.90
12504;DHT22;6316;48.118;-1.690;2023-04-25T22:47:37;13.20;99.90
12504;DHT22;6316;48.118;-1.690;2023-04-25T22:50:05;13.20;99.90
12504;DHT22;6316;48.118;-1.690;2023-04-25T22:52:32;13.20;99.90
12504;DHT22;6316;48.118;-1.690;2023-04-25T22:54:59;13.20;99.90
12504;DHT22;6316;48.118;-1.690;2023-04-25T22:57:27;13.20;99.90
12504;DHT22;6316;48.118;-1.690;2023-04-25T22:59:53;13.10;99.90
12504;DHT22;6316;48.118;-1.690;2023-04-25T23:02:19;13.10;99.90
12504;DHT22;6316;48.118;-1.690;2023-04-25T23:04:45;13.10;99.90
12504;DHT22;6316;48.118;-1.690;2023-04-25T23:07:11;13.10;99.90
12504;DHT22;6316;48.118;-1.690;2023-04-25T23:09:37;13.10;99.90
12504;DHT22;6316;48.118;-1.690;2023-04-25T23:12:03;13.10;99.90
12504;DHT22;6316;48.118;-1.690;2023-04-25T23:14:29;13.10;99.90
12504;DHT22;6316;48.118;-1.690;2023-04-25T23:16:54;13.10;99.90
12504;DHT22;6316;48.118;-1.690;2023-04-25T23:19:20;13.10;99.90
12504;DHT22;6316;48.118;-1.690;2023-04-25T23:21:46;13.00;99.90
12504;DHT22;6316;48.118;-1.690;2023-04-25T23:24:11;13.00;99.90
12504;DHT22;6316;48.118;-1.690;2023-04-25T23:26:38;13.00;99.90